Romoe Maersk — OXLC2 — position and weather

sailwx.info

Track history (hours):
 
Tides and Currents Weather Stations Pressure Air Temp Water Temp Dewpoint Dewpoint Depression Visibility Wind Speed Wind Dir Waves Ship Positions

Romoe Maersk

Last reported at 2015-Jan-26 06:04 UTC. Time now 2015-Jan-27 01:13 UTC.
Position N 37°33' E 023°42'.

Length 171 m; draft 11.1 m.

Type: Ship. MMSI: 220209000.

Date/timePositionNaut miles runAvg speedWind from/ knotsBaromVisibWave heightAir tempDewpointWater temp
2015-Jan-26 06:04N 37°33' E 023°42'612.2
2015-Jan-26 05:33N 37°40' E 023°42'1211.7
2015-Jan-26 04:33N 37°50' E 023°35'3 2.7
2015-Jan-26 03:32N 37°50' E 023°31'0 0.0
2015-Jan-26 02:32N 37°50' E 023°31'0 0.0
2015-Jan-26 01:32N 37°50' E 023°31'0 0.0
2015-Jan-26 00:32N 37°50' E 023°31'0 0.0
2015-Jan-25 23:32N 37°50' E 023°31'0 0.0
2015-Jan-25 22:32N 37°50' E 023°31'0 0.1
2015-Jan-25 21:33N 37°51' E 023°31'6 5.9
2015-Jan-25 20:33N 37°51' E 023°39'1111.3
2015-Jan-25 19:33N 37°41' E 023°45'1211.2
2015-Jan-25 18:30N 37°36' E 023°59'1611.6
2015-Jan-25 17:06N 37°43' E 024°17'18910.7
2015-Jan-24 23:29N 40°19' E 026°36'1010.4
2015-Jan-24 22:33N 40°26' E 026°45'119 4.3
2015-Jan-23 18:33N 41°25' E 029°02'3 0.8
2015-Jan-23 15:10N 41°24' E 029°05'1 0.7
2015-Jan-23 14:15N 41°24' E 029°06'0 0.7
2015-Jan-23 13:31N 41°24' E 029°06'1 0.6
2015-Jan-23 12:24N 41°24' E 029°07'4 0.2
2015-Jan-22 17:11N 41°25' E 029°13'0 0.1
2015-Jan-22 14:12N 41°25' E 029°13'  
2015-Jan-17 05:15N 46°26' E 030°57'1010.3
2015-Jan-17 04:17N 46°16' E 030°59'7 9.6
2015-Jan-17 03:33N 46°10' E 031°06'9 8.8
2015-Jan-17 02:33N 46°01' E 031°06'  
Track history (hours):
 
Tides and Currents Weather Stations Pressure Air Temp Water Temp Dewpoint Dewpoint Depression Visibility Wind Speed Wind Dir Waves Ship Positions

Romoe Maersk

Last reported at 2015-Jan-26 06:04 UTC. Time now 2015-Jan-27 01:13 UTC.
Position N 37°33' E 023°42'.

Length 171 m; draft 11.1 m.

Type: Ship. MMSI: 220209000.

Date/timePositionNaut miles runAvg speedWind from/ knotsBaromVisibWave heightAir tempDewpointWater temp
2015-Jan-26 06:04N 37°33' E 023°42'612.2
2015-Jan-26 05:33N 37°40' E 023°42'1211.7
2015-Jan-26 04:33N 37°50' E 023°35'3 2.7
2015-Jan-26 03:32N 37°50' E 023°31'0 0.0
2015-Jan-26 02:32N 37°50' E 023°31'0 0.0
2015-Jan-26 01:32N 37°50' E 023°31'0 0.0
2015-Jan-26 00:32N 37°50' E 023°31'0 0.0
2015-Jan-25 23:32N 37°50' E 023°31'0 0.0
2015-Jan-25 22:32N 37°50' E 023°31'0 0.1
2015-Jan-25 21:33N 37°51' E 023°31'6 5.9
2015-Jan-25 20:33N 37°51' E 023°39'1111.3
2015-Jan-25 19:33N 37°41' E 023°45'1211.2
2015-Jan-25 18:30N 37°36' E 023°59'1611.6
2015-Jan-25 17:06N 37°43' E 024°17'18910.7
2015-Jan-24 23:29N 40°19' E 026°36'1010.4
2015-Jan-24 22:33N 40°26' E 026°45'119 4.3
2015-Jan-23 18:33N 41°25' E 029°02'3 0.8
2015-Jan-23 15:10N 41°24' E 029°05'1 0.7
2015-Jan-23 14:15N 41°24' E 029°06'0 0.7
2015-Jan-23 13:31N 41°24' E 029°06'1 0.6
2015-Jan-23 12:24N 41°24' E 029°07'4 0.2
2015-Jan-22 17:11N 41°25' E 029°13'0 0.1
2015-Jan-22 14:12N 41°25' E 029°13'  
2015-Jan-17 05:15N 46°26' E 030°57'1010.3
2015-Jan-17 04:17N 46°16' E 030°59'7 9.6
2015-Jan-17 03:33N 46°10' E 031°06'9 8.8
2015-Jan-17 02:33N 46°01' E 031°06'  

Dump ship's entire track history